地図

経路データ

SID SEASON NUMBER BASIN SUBBASIN NAME ISO_TIME NATURE LAT LON WMO_WIND WMO_PRES WMO_AGENCY TRACK_TYPE DIST2LAND LANDFALL IFLAG USA_AGENCY USA_ATCF_ID USA_LAT USA_LON USA_RECORD USA_STATUS USA_WIND USA_PRES USA_SSHS USA_R34_NE USA_R34_SE USA_R34_SW USA_R34_NW USA_R50_NE USA_R50_SE USA_R50_SW USA_R50_NW USA_R64_NE USA_R64_SE USA_R64_SW USA_R64_NW USA_POCI USA_ROCI USA_RMW USA_EYE TOKYO_LAT TOKYO_LON TOKYO_GRADE TOKYO_WIND TOKYO_PRES TOKYO_R50_DIR TOKYO_R50_LONG TOKYO_R50_SHORT TOKYO_R30_DIR TOKYO_R30_LONG TOKYO_R30_SHORT TOKYO_LAND CMA_LAT CMA_LON CMA_CAT CMA_WIND CMA_PRES HKO_LAT HKO_LON HKO_CAT HKO_WIND HKO_PRES NEWDELHI_LAT NEWDELHI_LON NEWDELHI_GRADE NEWDELHI_WIND NEWDELHI_PRES NEWDELHI_CI NEWDELHI_DP NEWDELHI_POCI REUNION_LAT REUNION_LON REUNION_TYPE REUNION_WIND REUNION_PRES REUNION_TNUM REUNION_CI REUNION_RMW REUNION_R34_NE REUNION_R34_SE REUNION_R34_SW REUNION_R34_NW REUNION_R50_NE REUNION_R50_SE REUNION_R50_SW REUNION_R50_NW REUNION_R64_NE REUNION_R64_SE REUNION_R64_SW REUNION_R64_NW BOM_LAT BOM_LON BOM_TYPE BOM_WIND BOM_PRES BOM_TNUM BOM_CI BOM_RMW BOM_R34_NE BOM_R34_SE BOM_R34_SW BOM_R34_NW BOM_R50_NE BOM_R50_SE BOM_R50_SW BOM_R50_NW BOM_R64_NE BOM_R64_SE BOM_R64_SW BOM_R64_NW BOM_ROCI BOM_POCI BOM_EYE BOM_POS_METHOD BOM_PRES_METHOD NADI_LAT NADI_LON NADI_CAT NADI_WIND NADI_PRES WELLINGTON_LAT WELLINGTON_LON WELLINGTON_WIND WELLINGTON_PRES DS824_LAT DS824_LON DS824_STAGE DS824_WIND DS824_PRES TD9636_LAT TD9636_LON TD9636_STAGE TD9636_WIND TD9636_PRES TD9635_LAT TD9635_LON TD9635_WIND TD9635_PRES TD9635_ROCI NEUMANN_LAT NEUMANN_LON NEUMANN_CLASS NEUMANN_WIND NEUMANN_PRES MLC_LAT MLC_LON MLC_CLASS MLC_WIND MLC_PRES USA_GUST BOM_GUST BOM_GUST_PER REUNION_GUST REUNION_GUST_PER USA_SEAHGT USA_SEARAD_NE USA_SEARAD_SE USA_SEARAD_SW USA_SEARAD_NW STORM_SPEED STORM_DIR
1996093N09143 1996 28 WP MM NOT_NAMED 1996-04-02 00:00:00 NR 9.10000 143.000 spur-other 1311 1294 O_____________ jtwc_wp WP021996 9.10000 143.000 35 0 9 276
1996093N09143 1996 28 WP MM NOT_NAMED 1996-04-02 03:00:00 NR 9.15004 142.535 spur-other 1300 1285 P_____________ WP021996 9.15019 142.518 35 0 9 276
1996093N09143 1996 28 WP MM NOT_NAMED 1996-04-02 06:00:00 NR 9.20000 142.100 spur-other 1285 1274 O_____________ jtwc_wp WP021996 9.20000 142.100 35 0 7 278
1996093N09143 1996 28 WP MM NOT_NAMED 1996-04-02 09:00:00 NR 9.24989 141.785 spur-other 1274 1274 P_____________ WP021996 9.24989 141.785 35 0 6 280
1996093N09143 1996 28 WP MM NOT_NAMED 1996-04-02 12:00:00 NR 9.30000 141.500 spur-other 1275 1265 O_____________ jtwc_wp WP021996 9.30000 141.500 35 0 6 279
1996093N09143 1996 28 WP MM NOT_NAMED 1996-04-02 15:00:00 NR 9.34994 141.172 spur-other 1265 1265 P_____________ WP021996 9.34994 141.172 35 0 7 278
1996093N09143 1996 28 WP MM NOT_NAMED 1996-04-02 18:00:00 NR 9.40000 140.800 spur-other 1265 1247 O_____________ jtwc_wp WP021996 9.40000 140.800 35 0 8 277
1996093N09143 1996 28 WP MM NOT_NAMED 1996-04-02 21:00:00 NR 9.45007 140.343 spur-other 1252 1236 P_____________ WP021996 9.45007 140.343 35 0 9 276
1996093N09143 1996 28 WP MM NOT_NAMED 1996-04-03 00:00:00 NR 9.50000 139.900 spur-other 1236 1224 O_____________ jtwc_wp WP021996 9.50000 139.900 35 0 7 278
1996093N09143 1996 28 WP MM NOT_NAMED 1996-04-03 03:00:00 NR 9.55736 139.592 spur-other 1235 1224 P_____________ WP021996 9.55736 139.592 35 0 6 280
1996093N09143 1996 28 WP MM NOT_NAMED 1996-04-03 06:00:00 NR 9.60000 139.300 spur-other 1224 1210 O_____________ jtwc_wp WP021996 9.60000 139.300 35 0 7 274
1996093N09143 1996 28 WP MM NOT_NAMED 1996-04-03 09:00:00 NR 9.60753 138.907 spur-other 1210 1198 P_____________ WP021996 9.60753 138.907 35 0 8 270
1996093N09143 1996 28 WP MM NOT_NAMED 1996-04-03 12:00:00 NR 9.60000 138.500 spur-other 1198 1189 O_____________ jtwc_wp WP021996 9.60000 138.500 35 0 8 269
1996093N09143 1996 28 WP MM NOT_NAMED 1996-04-03 15:00:00 NR 9.59246 138.135 spur-other 1186 1179 P_____________ WP021996 9.59246 138.135 35 0 7 270
1996093N09143 1996 28 WP MM NOT_NAMED 1996-04-03 18:00:00 NR 9.60000 137.800 spur-other 1179 1173 O_____________ jtwc_wp WP021996 9.60000 137.800 35 0 6 275
1996093N09143 1996 28 WP MM NOT_NAMED 1996-04-03 21:00:00 NR 9.64989 137.515 spur-other 1173 1173 P_____________ WP021996 9.64989 137.515 32 -1 6 280
1996093N09143 1996 28 WP MM NOT_NAMED 1996-04-04 00:00:00 NR 9.70000 137.200 spur-other 1178 1144 O_____________ jtwc_wp WP021996 9.70000 137.200 30 -1 7 274
1996093N09143 1996 28 WP MM NOT_NAMED 1996-04-04 03:00:00 NR 9.70755 136.765 spur-other 1144 1090 P_____________ WP021996 9.70755 136.765 27 -1 9 270
1996093N09143 1996 28 WP MM NOT_NAMED 1996-04-04 06:00:00 NR 9.70000 136.300 spur-other 1090 1047 O_____________ jtwc_wp WP021996 9.70000 136.300 25 -1 9 270
1996093N09143 1996 28 WP MM NOT_NAMED 1996-04-04 09:00:00 NR 9.70743 135.893 spur-other 1047 1004 P_____________ WP021996 9.69752 135.883 25 -1 8 270
1996093N09143 1996 28 WP MM NOT_NAMED 1996-04-04 12:00:00 NR 9.70000 135.500 spur-other 1004 961 O_____________ jtwc_wp WP021996 9.70000 135.500 25 -1 8 266
1996093N09143 1996 28 WP MM NOT_NAMED 1996-04-04 15:00:00 NR 9.64993 135.107 spur-other 959 ______________ WP021996 -1 8 263

デジタル台風データ・検索

IBTrACS Databaseについて

本データベースは、米国NOAAが公開する1842年以降の世界の熱帯低気圧のベストトラックデータアーカイブInternational Best Track Archive for Climate Stewardship (IBTrACS)を、ウェブで閲覧しやすい形式に変換したものです。

最終更新日:2021-12-06